sensor_id;sensor_type;location;lat;lon;timestamp;P1;durP1;ratioP1;P2;durP2;ratioP2
48777;SDS011;34578;0.000;0.000;2023-03-13T00:04:15;3.27;;;1.33;;
48777;SDS011;34578;0.000;0.000;2023-03-13T00:09:16;2.80;;;1.30;;
48777;SDS011;34578;0.000;0.000;2023-03-13T00:14:16;4.28;;;1.23;;
48777;SDS011;34578;0.000;0.000;2023-03-13T00:19:17;3.57;;;1.00;;
48777;SDS011;34578;0.000;0.000;2023-03-13T00:24:17;4.67;;;1.23;;
48777;SDS011;34578;0.000;0.000;2023-03-13T00:29:17;1.70;;;0.80;;
48777;SDS011;34578;0.000;0.000;2023-03-13T00:34:18;3.10;;;1.07;;
48777;SDS011;34578;0.000;0.000;2023-03-13T00:39:18;3.67;;;1.10;;
48777;SDS011;34578;0.000;0.000;2023-03-13T00:44:18;2.57;;;1.00;;
48777;SDS011;34578;0.000;0.000;2023-03-13T00:49:21;1.67;;;0.98;;
48777;SDS011;34578;0.000;0.000;2023-03-13T00:54:21;4.45;;;1.23;;
48777;SDS011;34578;0.000;0.000;2023-03-13T00:59:22;4.27;;;1.13;;
48777;SDS011;34578;0.000;0.000;2023-03-13T01:04:22;5.30;;;1.83;;
48777;SDS011;34578;0.000;0.000;2023-03-13T01:09:23;1.27;;;0.70;;
48777;SDS011;34578;0.000;0.000;2023-03-13T01:14:24;2.13;;;0.80;;
48777;SDS011;34578;0.000;0.000;2023-03-13T01:19:26;3.58;;;1.35;;
48777;SDS011;34578;0.000;0.000;2023-03-13T01:24:27;4.20;;;1.02;;
48777;SDS011;34578;0.000;0.000;2023-03-13T01:29:27;4.55;;;1.10;;
48777;SDS011;34578;0.000;0.000;2023-03-13T01:34:28;3.55;;;1.20;;
48777;SDS011;34578;0.000;0.000;2023-03-13T01:39:28;4.18;;;1.10;;
48777;SDS011;34578;0.000;0.000;2023-03-13T01:44:29;3.87;;;1.20;;
48777;SDS011;34578;0.000;0.000;2023-03-13T01:49:47;2.25;;;0.82;;
48777;SDS011;34578;0.000;0.000;2023-03-13T01:55:19;1.90;;;0.80;;
48777;SDS011;34578;0.000;0.000;2023-03-13T02:00:24;2.85;;;1.10;;
48777;SDS011;34578;0.000;0.000;2023-03-13T02:05:28;1.88;;;0.70;;
48777;SDS011;34578;0.000;0.000;2023-03-13T02:10:30;4.38;;;1.00;;
48777;SDS011;34578;0.000;0.000;2023-03-13T02:15:33;2.60;;;0.93;;
48777;SDS011;34578;0.000;0.000;2023-03-13T02:20:35;6.90;;;1.02;;
48777;SDS011;34578;0.000;0.000;2023-03-13T02:30:50;2.40;;;0.80;;
48777;SDS011;34578;0.000;0.000;2023-03-13T02:35:55;3.78;;;1.25;;
48777;SDS011;34578;0.000;0.000;2023-03-13T02:40:58;2.47;;;0.73;;
48777;SDS011;34578;0.000;0.000;2023-03-13T02:46:08;1.85;;;0.70;;
48777;SDS011;34578;0.000;0.000;2023-03-13T02:56:22;3.72;;;1.00;;
48777;SDS011;34578;0.000;0.000;2023-03-13T03:01:25;1.45;;;0.68;;
48777;SDS011;34578;0.000;0.000;2023-03-13T03:06:25;5.55;;;1.70;;
48777;SDS011;34578;0.000;0.000;2023-03-13T03:11:27;2.42;;;0.95;;
48777;SDS011;34578;0.000;0.000;2023-03-13T03:16:33;2.28;;;0.90;;
48777;SDS011;34578;0.000;0.000;2023-03-13T03:21:34;1.38;;;0.55;;
48777;SDS011;34578;0.000;0.000;2023-03-13T03:26:34;3.53;;;0.80;;
48777;SDS011;34578;0.000;0.000;2023-03-13T03:31:38;2.08;;;1.05;;
48777;SDS011;34578;0.000;0.000;2023-03-13T03:36:39;4.30;;;0.77;;
48777;SDS011;34578;0.000;0.000;2023-03-13T03:41:39;2.70;;;0.93;;
48777;SDS011;34578;0.000;0.000;2023-03-13T03:46:40;1.92;;;0.90;;
48777;SDS011;34578;0.000;0.000;2023-03-13T03:51:41;2.30;;;0.90;;
48777;SDS011;34578;0.000;0.000;2023-03-13T03:56:41;3.88;;;0.88;;
48777;SDS011;34578;0.000;0.000;2023-03-13T04:01:43;2.33;;;0.75;;
48777;SDS011;34578;0.000;0.000;2023-03-13T04:06:44;4.65;;;1.10;;
48777;SDS011;34578;0.000;0.000;2023-03-13T04:11:45;2.33;;;0.60;;
48777;SDS011;34578;0.000;0.000;2023-03-13T04:16:46;1.55;;;0.77;;
48777;SDS011;34578;0.000;0.000;2023-03-13T04:21:48;1.88;;;0.77;;
48777;SDS011;34578;0.000;0.000;2023-03-13T04:26:52;3.95;;;0.93;;
48777;SDS011;34578;0.000;0.000;2023-03-13T04:31:54;1.77;;;0.70;;
48777;SDS011;34578;0.000;0.000;2023-03-13T04:37:17;2.97;;;0.80;;
48777;SDS011;34578;0.000;0.000;2023-03-13T04:42:36;1.20;;;0.52;;
48777;SDS011;34578;0.000;0.000;2023-03-13T04:48:13;1.58;;;0.63;;
48777;SDS011;34578;0.000;0.000;2023-03-13T04:53:36;5.05;;;2.53;;
48777;SDS011;34578;0.000;0.000;2023-03-13T04:58:52;2.13;;;0.98;;
48777;SDS011;34578;0.000;0.000;2023-03-13T05:04:19;3.13;;;0.50;;
48777;SDS011;34578;0.000;0.000;2023-03-13T05:09:39;1.60;;;0.70;;
48777;SDS011;34578;0.000;0.000;2023-03-13T05:15:12;3.15;;;1.15;;
48777;SDS011;34578;0.000;0.000;2023-03-13T05:20:36;2.45;;;0.75;;
48777;SDS011;34578;0.000;0.000;2023-03-13T05:25:47;3.67;;;1.10;;
48777;SDS011;34578;0.000;0.000;2023-03-13T05:30:55;3.08;;;0.93;;
48777;SDS011;34578;0.000;0.000;2023-03-13T05:36:24;4.05;;;0.80;;
48777;SDS011;34578;0.000;0.000;2023-03-13T05:41:30;4.03;;;1.73;;
48777;SDS011;34578;0.000;0.000;2023-03-13T05:46:48;6.68;;;0.90;;
48777;SDS011;34578;0.000;0.000;2023-03-13T05:52:07;5.43;;;1.20;;
48777;SDS011;34578;0.000;0.000;2023-03-13T05:57:38;5.32;;;1.15;;
48777;SDS011;34578;0.000;0.000;2023-03-13T06:02:48;5.85;;;1.08;;
48777;SDS011;34578;0.000;0.000;2023-03-13T06:07:55;5.32;;;1.20;;
48777;SDS011;34578;0.000;0.000;2023-03-13T06:12:55;7.73;;;1.37;;
48777;SDS011;34578;0.000;0.000;2023-03-13T06:17:59;3.25;;;1.00;;
48777;SDS011;34578;0.000;0.000;2023-03-13T06:23:00;5.37;;;1.30;;
48777;SDS011;34578;0.000;0.000;2023-03-13T06:28:00;9.33;;;2.70;;
48777;SDS011;34578;0.000;0.000;2023-03-13T06:33:00;12.47;;;1.50;;
48777;SDS011;34578;0.000;0.000;2023-03-13T06:38:01;4.32;;;1.58;;
48777;SDS011;34578;0.000;0.000;2023-03-13T06:43:01;7.30;;;1.00;;
48777;SDS011;34578;0.000;0.000;2023-03-13T06:48:02;9.15;;;1.52;;
48777;SDS011;34578;0.000;0.000;2023-03-13T06:53:03;4.50;;;0.82;;
48777;SDS011;34578;0.000;0.000;2023-03-13T06:58:04;3.63;;;1.25;;
48777;SDS011;34578;0.000;0.000;2023-03-13T07:03:04;5.50;;;1.20;;
48777;SDS011;34578;0.000;0.000;2023-03-13T07:08:05;5.13;;;1.27;;
48777;SDS011;34578;0.000;0.000;2023-03-13T07:13:05;4.05;;;1.05;;
48777;SDS011;34578;0.000;0.000;2023-03-13T07:18:06;7.28;;;1.35;;
48777;SDS011;34578;0.000;0.000;2023-03-13T07:23:06;8.20;;;1.87;;
48777;SDS011;34578;0.000;0.000;2023-03-13T07:28:07;2.75;;;0.95;;
48777;SDS011;34578;0.000;0.000;2023-03-13T07:33:07;4.73;;;1.03;;
48777;SDS011;34578;0.000;0.000;2023-03-13T07:38:07;2.43;;;0.73;;
48777;SDS011;34578;0.000;0.000;2023-03-13T07:43:08;4.33;;;1.83;;
48777;SDS011;34578;0.000;0.000;2023-03-13T07:48:08;4.00;;;1.13;;
48777;SDS011;34578;0.000;0.000;2023-03-13T07:53:08;3.13;;;0.80;;
48777;SDS011;34578;0.000;0.000;2023-03-13T07:58:09;6.32;;;1.23;;
48777;SDS011;34578;0.000;0.000;2023-03-13T08:03:09;1.93;;;0.93;;
48777;SDS011;34578;0.000;0.000;2023-03-13T08:08:10;1.33;;;0.63;;
48777;SDS011;34578;0.000;0.000;2023-03-13T08:13:10;3.87;;;1.17;;
48777;SDS011;34578;0.000;0.000;2023-03-13T08:18:11;6.63;;;0.90;;
48777;SDS011;34578;0.000;0.000;2023-03-13T08:23:11;3.25;;;0.73;;
48777;SDS011;34578;0.000;0.000;2023-03-13T08:28:11;2.53;;;1.40;;
48777;SDS011;34578;0.000;0.000;2023-03-13T08:33:12;4.57;;;0.60;;
48777;SDS011;34578;0.000;0.000;2023-03-13T08:38:12;3.30;;;0.70;;
48777;SDS011;34578;0.000;0.000;2023-03-13T08:43:12;1.80;;;0.73;;
48777;SDS011;34578;0.000;0.000;2023-03-13T08:48:13;2.47;;;0.97;;
48777;SDS011;34578;0.000;0.000;2023-03-13T08:53:13;2.40;;;0.90;;
48777;SDS011;34578;0.000;0.000;2023-03-13T08:58:13;1.23;;;0.70;;
48777;SDS011;34578;0.000;0.000;2023-03-13T09:03:14;1.87;;;0.50;;
48777;SDS011;34578;0.000;0.000;2023-03-13T09:08:14;3.05;;;0.60;;
48777;SDS011;34578;0.000;0.000;2023-03-13T09:13:15;2.67;;;0.80;;
48777;SDS011;34578;0.000;0.000;2023-03-13T09:18:15;1.53;;;0.60;;
48777;SDS011;34578;0.000;0.000;2023-03-13T09:23:15;0.63;;;0.30;;
48777;SDS011;34578;0.000;0.000;2023-03-13T09:28:16;2.75;;;0.60;;
48777;SDS011;34578;0.000;0.000;2023-03-13T09:33:17;1.63;;;0.47;;
48777;SDS011;34578;0.000;0.000;2023-03-13T09:38:19;1.23;;;0.50;;
48777;SDS011;34578;0.000;0.000;2023-03-13T09:43:24;2.35;;;0.73;;
48777;SDS011;34578;0.000;0.000;2023-03-13T09:48:41;1.98;;;0.40;;
48777;SDS011;34578;0.000;0.000;2023-03-13T10:03:57;0.80;;;0.70;;
48777;SDS011;34578;0.000;0.000;2023-03-13T10:09:17;1.10;;;0.75;;
48777;SDS011;34578;0.000;0.000;2023-03-13T10:14:22;1.83;;;0.50;;
48777;SDS011;34578;0.000;0.000;2023-03-13T10:19:31;1.38;;;0.50;;
48777;SDS011;34578;0.000;0.000;2023-03-13T10:24:38;1.23;;;0.38;;
48777;SDS011;34578;0.000;0.000;2023-03-13T10:29:44;2.15;;;0.57;;
48777;SDS011;34578;0.000;0.000;2023-03-13T10:35:05;0.68;;;0.38;;
48777;SDS011;34578;0.000;0.000;2023-03-13T10:40:27;0.65;;;0.30;;
48777;SDS011;34578;0.000;0.000;2023-03-13T10:45:26;0.52;;;0.40;;
48777;SDS011;34578;0.000;0.000;2023-03-13T10:50:32;1.92;;;0.73;;
48777;SDS011;34578;0.000;0.000;2023-03-13T10:55:33;1.08;;;0.55;;
48777;SDS011;34578;0.000;0.000;2023-03-13T11:00:34;0.97;;;0.67;;
48777;SDS011;34578;0.000;0.000;2023-03-13T11:05:39;1.92;;;0.50;;
48777;SDS011;34578;0.000;0.000;2023-03-13T11:10:52;0.75;;;0.43;;
48777;SDS011;34578;0.000;0.000;2023-03-13T11:15:58;1.15;;;0.40;;
48777;SDS011;34578;0.000;0.000;2023-03-13T11:21:05;1.35;;;0.40;;
48777;SDS011;34578;0.000;0.000;2023-03-13T11:26:16;3.88;;;0.65;;
48777;SDS011;34578;0.000;0.000;2023-03-13T11:37:00;0.85;;;0.40;;
48777;SDS011;34578;0.000;0.000;2023-03-13T11:53:14;6.80;;;0.93;;
48777;SDS011;34578;0.000;0.000;2023-03-13T11:58:34;2.38;;;0.75;;
48777;SDS011;34578;0.000;0.000;2023-03-13T12:03:51;2.38;;;0.40;;
48777;SDS011;34578;0.000;0.000;2023-03-13T12:09:09;3.13;;;0.85;;
48777;SDS011;34578;0.000;0.000;2023-03-13T12:14:16;3.47;;;1.38;;
48777;SDS011;34578;0.000;0.000;2023-03-13T12:19:27;6.07;;;0.70;;
48777;SDS011;34578;0.000;0.000;2023-03-13T12:24:35;3.22;;;0.57;;
48777;SDS011;34578;0.000;0.000;2023-03-13T12:29:45;2.08;;;0.47;;
48777;SDS011;34578;0.000;0.000;2023-03-13T12:34:58;2.70;;;0.60;;
48777;SDS011;34578;0.000;0.000;2023-03-13T12:45:27;2.05;;;0.40;;
48777;SDS011;34578;0.000;0.000;2023-03-13T12:50:47;3.55;;;0.63;;
48777;SDS011;34578;0.000;0.000;2023-03-13T12:56:21;2.47;;;0.50;;
48777;SDS011;34578;0.000;0.000;2023-03-13T13:01:30;4.20;;;0.40;;
48777;SDS011;34578;0.000;0.000;2023-03-13T13:11:56;5.78;;;0.57;;
48777;SDS011;34578;0.000;0.000;2023-03-13T13:17:18;3.70;;;0.85;;
48777;SDS011;34578;0.000;0.000;2023-03-13T13:32:38;6.85;;;1.40;;
48777;SDS011;34578;0.000;0.000;2023-03-13T13:37:40;5.72;;;0.88;;
48777;SDS011;34578;0.000;0.000;2023-03-13T13:42:45;6.35;;;0.93;;
48777;SDS011;34578;0.000;0.000;2023-03-13T13:47:48;2.58;;;0.52;;
48777;SDS011;34578;0.000;0.000;2023-03-13T13:52:50;2.22;;;0.30;;
48777;SDS011;34578;0.000;0.000;2023-03-13T13:58:03;6.85;;;0.80;;
48777;SDS011;34578;0.000;0.000;2023-03-13T14:03:16;1.98;;;1.13;;
48777;SDS011;34578;0.000;0.000;2023-03-13T14:08:19;3.40;;;0.47;;
48777;SDS011;34578;0.000;0.000;2023-03-13T14:13:23;0.85;;;0.15;;
48777;SDS011;34578;0.000;0.000;2023-03-13T14:18:24;2.08;;;0.30;;
48777;SDS011;34578;0.000;0.000;2023-03-13T14:23:28;1.75;;;0.52;;
48777;SDS011;34578;0.000;0.000;2023-03-13T14:28:31;0.93;;;0.40;;
48777;SDS011;34578;0.000;0.000;2023-03-13T14:33:32;2.00;;;0.50;;
48777;SDS011;34578;0.000;0.000;2023-03-13T14:38:33;1.15;;;0.22;;
48777;SDS011;34578;0.000;0.000;2023-03-13T14:43:34;0.80;;;0.50;;
48777;SDS011;34578;0.000;0.000;2023-03-13T14:48:39;2.83;;;0.70;;
48777;SDS011;34578;0.000;0.000;2023-03-13T14:53:40;3.17;;;0.45;;
48777;SDS011;34578;0.000;0.000;2023-03-13T14:58:52;1.00;;;0.38;;
48777;SDS011;34578;0.000;0.000;2023-03-13T15:03:53;3.15;;;1.13;;
48777;SDS011;34578;0.000;0.000;2023-03-13T15:09:09;8.53;;;0.77;;
48777;SDS011;34578;0.000;0.000;2023-03-13T15:14:34;7.68;;;1.15;;
48777;SDS011;34578;0.000;0.000;2023-03-13T15:19:37;6.22;;;0.88;;
48777;SDS011;34578;0.000;0.000;2023-03-13T15:24:37;3.10;;;0.70;;
48777;SDS011;34578;0.000;0.000;2023-03-13T15:29:37;3.37;;;0.60;;
48777;SDS011;34578;0.000;0.000;2023-03-13T15:34:38;3.67;;;0.73;;
48777;SDS011;34578;0.000;0.000;2023-03-13T15:39:38;4.30;;;0.70;;
48777;SDS011;34578;0.000;0.000;2023-03-13T15:44:38;2.80;;;0.80;;
48777;SDS011;34578;0.000;0.000;2023-03-13T15:49:39;3.93;;;0.80;;
48777;SDS011;34578;0.000;0.000;2023-03-13T15:54:39;2.83;;;0.60;;
48777;SDS011;34578;0.000;0.000;2023-03-13T15:59:39;8.70;;;0.90;;
48777;SDS011;34578;0.000;0.000;2023-03-13T16:04:41;14.73;;;1.77;;
48777;SDS011;34578;0.000;0.000;2023-03-13T16:09:43;21.45;;;2.42;;
48777;SDS011;34578;0.000;0.000;2023-03-13T16:14:43;13.38;;;1.75;;
48777;SDS011;34578;0.000;0.000;2023-03-13T16:19:44;5.57;;;1.27;;
48777;SDS011;34578;0.000;0.000;2023-03-13T16:24:45;4.45;;;1.52;;
48777;SDS011;34578;0.000;0.000;2023-03-13T16:29:45;6.43;;;1.87;;
48777;SDS011;34578;0.000;0.000;2023-03-13T16:34:46;4.43;;;1.30;;
48777;SDS011;34578;0.000;0.000;2023-03-13T16:39:46;11.37;;;2.17;;
48777;SDS011;34578;0.000;0.000;2023-03-13T16:44:47;7.45;;;3.22;;
48777;SDS011;34578;0.000;0.000;2023-03-13T16:49:47;17.13;;;3.70;;
48777;SDS011;34578;0.000;0.000;2023-03-13T16:54:48;13.52;;;3.22;;
48777;SDS011;34578;0.000;0.000;2023-03-13T16:59:49;13.00;;;3.07;;
48777;SDS011;34578;0.000;0.000;2023-03-13T17:04:50;2.90;;;1.85;;
48777;SDS011;34578;0.000;0.000;2023-03-13T17:09:50;6.13;;;2.13;;
48777;SDS011;34578;0.000;0.000;2023-03-13T17:14:51;8.10;;;2.10;;
48777;SDS011;34578;0.000;0.000;2023-03-13T17:19:51;7.00;;;2.37;;
48777;SDS011;34578;0.000;0.000;2023-03-13T17:24:52;29.27;;;5.90;;
48777;SDS011;34578;0.000;0.000;2023-03-13T17:29:52;20.63;;;4.87;;
48777;SDS011;34578;0.000;0.000;2023-03-13T17:34:52;10.70;;;2.50;;
48777;SDS011;34578;0.000;0.000;2023-03-13T17:39:53;9.77;;;2.33;;
48777;SDS011;34578;0.000;0.000;2023-03-13T17:44:53;7.97;;;3.33;;
48777;SDS011;34578;0.000;0.000;2023-03-13T17:49:53;8.37;;;1.97;;
48777;SDS011;34578;0.000;0.000;2023-03-13T17:54:54;15.60;;;2.87;;
48777;SDS011;34578;0.000;0.000;2023-03-13T17:59:54;16.53;;;3.00;;
48777;SDS011;34578;0.000;0.000;2023-03-13T18:04:54;8.23;;;1.83;;
48777;SDS011;34578;0.000;0.000;2023-03-13T18:09:55;10.17;;;1.93;;
48777;SDS011;34578;0.000;0.000;2023-03-13T18:14:55;11.67;;;2.63;;
48777;SDS011;34578;0.000;0.000;2023-03-13T18:19:55;11.27;;;2.30;;
48777;SDS011;34578;0.000;0.000;2023-03-13T18:24:56;7.00;;;1.58;;
48777;SDS011;34578;0.000;0.000;2023-03-13T18:29:59;9.75;;;1.80;;
48777;SDS011;34578;0.000;0.000;2023-03-13T18:35:00;9.33;;;1.73;;
48777;SDS011;34578;0.000;0.000;2023-03-13T18:40:00;10.97;;;1.87;;
48777;SDS011;34578;0.000;0.000;2023-03-13T18:45:00;15.57;;;2.15;;
48777;SDS011;34578;0.000;0.000;2023-03-13T18:50:01;5.45;;;1.55;;
48777;SDS011;34578;0.000;0.000;2023-03-13T18:55:01;4.93;;;1.67;;
48777;SDS011;34578;0.000;0.000;2023-03-13T19:00:02;7.85;;;1.20;;
48777;SDS011;34578;0.000;0.000;2023-03-13T19:05:13;8.50;;;1.98;;
48777;SDS011;34578;0.000;0.000;2023-03-13T19:10:16;11.57;;;1.40;;
48777;SDS011;34578;0.000;0.000;2023-03-13T19:15:20;5.28;;;1.40;;
48777;SDS011;34578;0.000;0.000;2023-03-13T19:20:23;3.90;;;1.00;;
48777;SDS011;34578;0.000;0.000;2023-03-13T19:25:23;9.57;;;1.70;;
48777;SDS011;34578;0.000;0.000;2023-03-13T19:30:24;6.63;;;1.60;;
48777;SDS011;34578;0.000;0.000;2023-03-13T19:35:25;14.57;;;2.45;;
48777;SDS011;34578;0.000;0.000;2023-03-13T19:40:25;5.00;;;1.50;;
48777;SDS011;34578;0.000;0.000;2023-03-13T19:45:27;5.25;;;1.20;;
48777;SDS011;34578;0.000;0.000;2023-03-13T19:50:28;4.93;;;1.00;;
48777;SDS011;34578;0.000;0.000;2023-03-13T19:55:30;6.00;;;1.88;;
48777;SDS011;34578;0.000;0.000;2023-03-13T20:00:30;8.10;;;1.60;;
48777;SDS011;34578;0.000;0.000;2023-03-13T20:05:31;4.68;;;1.40;;
48777;SDS011;34578;0.000;0.000;2023-03-13T20:10:31;3.83;;;1.77;;
48777;SDS011;34578;0.000;0.000;2023-03-13T20:15:32;13.80;;;2.30;;
48777;SDS011;34578;0.000;0.000;2023-03-13T20:20:32;4.43;;;1.00;;
48777;SDS011;34578;0.000;0.000;2023-03-13T20:25:32;6.57;;;0.97;;
48777;SDS011;34578;0.000;0.000;2023-03-13T20:30:36;3.63;;;0.70;;
48777;SDS011;34578;0.000;0.000;2023-03-13T20:35:39;3.88;;;1.15;;
48777;SDS011;34578;0.000;0.000;2023-03-13T20:40:39;4.80;;;0.90;;
48777;SDS011;34578;0.000;0.000;2023-03-13T20:45:39;2.23;;;0.90;;
48777;SDS011;34578;0.000;0.000;2023-03-13T20:50:40;4.00;;;0.97;;
48777;SDS011;34578;0.000;0.000;2023-03-13T20:55:40;2.60;;;0.80;;
48777;SDS011;34578;0.000;0.000;2023-03-13T21:00:41;3.33;;;0.77;;
48777;SDS011;34578;0.000;0.000;2023-03-13T21:05:42;0.93;;;0.65;;
48777;SDS011;34578;0.000;0.000;2023-03-13T21:10:43;6.65;;;1.60;;
48777;SDS011;34578;0.000;0.000;2023-03-13T21:15:43;2.60;;;1.20;;
48777;SDS011;34578;0.000;0.000;2023-03-13T21:20:44;5.17;;;1.33;;
48777;SDS011;34578;0.000;0.000;2023-03-13T21:25:44;3.45;;;1.40;;
48777;SDS011;34578;0.000;0.000;2023-03-13T21:30:52;4.63;;;0.80;;
48777;SDS011;34578;0.000;0.000;2023-03-13T21:35:53;1.45;;;0.85;;
48777;SDS011;34578;0.000;0.000;2023-03-13T21:40:55;4.72;;;1.05;;
48777;SDS011;34578;0.000;0.000;2023-03-13T21:45:57;3.00;;;0.75;;
48777;SDS011;34578;0.000;0.000;2023-03-13T21:50:58;3.15;;;0.65;;
48777;SDS011;34578;0.000;0.000;2023-03-13T21:55:59;3.92;;;1.00;;
48777;SDS011;34578;0.000;0.000;2023-03-13T22:00:59;2.10;;;0.60;;
48777;SDS011;34578;0.000;0.000;2023-03-13T22:06:00;2.15;;;0.80;;
48777;SDS011;34578;0.000;0.000;2023-03-13T22:11:00;3.00;;;0.80;;
48777;SDS011;34578;0.000;0.000;2023-03-13T22:16:00;1.67;;;0.70;;
48777;SDS011;34578;0.000;0.000;2023-03-13T22:21:01;2.00;;;0.70;;
48777;SDS011;34578;0.000;0.000;2023-03-13T22:26:01;0.90;;;0.50;;
48777;SDS011;34578;0.000;0.000;2023-03-13T22:31:03;6.22;;;1.08;;
48777;SDS011;34578;0.000;0.000;2023-03-13T22:36:04;3.35;;;0.95;;
48777;SDS011;34578;0.000;0.000;2023-03-13T22:41:06;3.47;;;1.00;;
48777;SDS011;34578;0.000;0.000;2023-03-13T22:46:11;1.95;;;0.70;;
48777;SDS011;34578;0.000;0.000;2023-03-13T22:51:12;1.38;;;0.70;;
48777;SDS011;34578;0.000;0.000;2023-03-13T22:56:13;0.80;;;0.50;;
48777;SDS011;34578;0.000;0.000;2023-03-13T23:01:14;1.93;;;0.60;;
48777;SDS011;34578;0.000;0.000;2023-03-13T23:06:17;1.10;;;0.50;;
48777;SDS011;34578;0.000;0.000;2023-03-13T23:11:20;1.90;;;0.82;;
48777;SDS011;34578;0.000;0.000;2023-03-13T23:16:20;2.00;;;0.50;;
48777;SDS011;34578;0.000;0.000;2023-03-13T23:21:21;0.63;;;0.37;;
48777;SDS011;34578;0.000;0.000;2023-03-13T23:26:21;0.70;;;0.40;;
48777;SDS011;34578;0.000;0.000;2023-03-13T23:31:22;1.23;;;0.55;;
48777;SDS011;34578;0.000;0.000;2023-03-13T23:36:22;0.57;;;0.25;;
48777;SDS011;34578;0.000;0.000;2023-03-13T23:41:23;1.57;;;0.33;;
48777;SDS011;34578;0.000;0.000;2023-03-13T23:46:23;4.37;;;1.50;;
48777;SDS011;34578;0.000;0.000;2023-03-13T23:51:27;2.78;;;0.90;;
48777;SDS011;34578;0.000;0.000;2023-03-13T23:56:29;1.00;;;0.70;;
